createdAt,value
2022-12-31T00:00:22.060Z,0.00
2022-12-31T00:01:22.011Z,0.00
2022-12-31T00:02:22.148Z,0.00
2022-12-31T00:03:22.255Z,0.00
2022-12-31T00:04:22.010Z,0.00
2022-12-31T00:05:21.963Z,0.00
2022-12-31T00:06:22.038Z,0.00
2022-12-31T00:07:21.941Z,0.00
2022-12-31T00:08:21.954Z,0.00
2022-12-31T00:09:21.952Z,0.00
2022-12-31T00:10:21.928Z,0.00
2022-12-31T00:11:22.099Z,0.00
2022-12-31T00:12:21.895Z,0.00
2022-12-31T00:13:21.940Z,0.00
2022-12-31T00:14:21.887Z,0.00
2022-12-31T00:15:21.891Z,0.00
2022-12-31T00:16:21.951Z,0.00
2022-12-31T00:17:21.861Z,0.00
2022-12-31T00:18:21.868Z,0.00
2022-12-31T00:19:21.860Z,0.00
2022-12-31T00:20:21.851Z,0.00
2022-12-31T00:21:21.814Z,0.00
2022-12-31T00:22:21.830Z,0.00
2022-12-31T00:23:21.816Z,0.00
2022-12-31T00:24:21.810Z,0.00
2022-12-31T00:25:21.768Z,0.00
2022-12-31T00:26:21.788Z,0.00
2022-12-31T00:27:21.846Z,0.00
2022-12-31T00:28:21.729Z,0.00
2022-12-31T00:29:21.741Z,0.00
2022-12-31T00:30:21.746Z,0.00
2022-12-31T00:31:21.757Z,0.00
2022-12-31T00:32:21.702Z,0.00
2022-12-31T00:33:21.693Z,0.00
2022-12-31T00:34:21.705Z,0.00
2022-12-31T00:35:22.669Z,0.00
2022-12-31T00:36:21.661Z,0.00
2022-12-31T00:37:21.679Z,0.00
2022-12-31T00:38:21.629Z,0.00
2022-12-31T00:39:21.645Z,0.00
2022-12-31T00:40:21.615Z,0.00
2022-12-31T00:41:21.592Z,0.00
2022-12-31T00:42:21.586Z,0.00
2022-12-31T00:43:21.596Z,0.00
2022-12-31T00:44:21.565Z,0.00
2022-12-31T00:45:21.573Z,0.00
2022-12-31T00:46:21.585Z,0.00
2022-12-31T00:47:21.584Z,0.00
2022-12-31T00:48:21.542Z,0.00
2022-12-31T00:49:21.530Z,0.00
2022-12-31T00:50:21.511Z,0.00
2022-12-31T00:51:21.507Z,0.00
2022-12-31T00:52:21.511Z,0.00
2022-12-31T00:53:21.496Z,0.00
2022-12-31T00:54:21.468Z,0.00
2022-12-31T00:55:21.479Z,0.00
2022-12-31T00:56:21.465Z,0.00
2022-12-31T00:57:22.480Z,0.00
2022-12-31T00:58:21.439Z,0.00
2022-12-31T00:59:21.483Z,0.00
2022-12-31T01:00:21.431Z,0.00
2022-12-31T01:01:21.507Z,0.00
2022-12-31T01:02:21.690Z,0.00
2022-12-31T01:03:21.435Z,0.00
2022-12-31T01:04:21.375Z,0.00
2022-12-31T01:05:21.368Z,0.00
2022-12-31T01:06:21.357Z,0.00
2022-12-31T01:07:21.400Z,0.00
2022-12-31T01:08:21.324Z,0.00
2022-12-31T01:09:21.343Z,0.00
2022-12-31T01:10:21.314Z,0.00
2022-12-31T01:11:21.299Z,0.00
2022-12-31T01:12:21.303Z,0.00
2022-12-31T01:13:21.293Z,0.00
2022-12-31T01:14:21.261Z,0.00
2022-12-31T01:15:21.265Z,0.00
2022-12-31T01:16:21.304Z,0.00
2022-12-31T01:17:21.274Z,0.00
2022-12-31T01:18:21.309Z,0.00
2022-12-31T01:19:21.285Z,0.00
2022-12-31T01:20:21.196Z,0.00
2022-12-31T01:21:21.192Z,0.00
2022-12-31T01:22:21.190Z,0.00
2022-12-31T01:23:21.185Z,0.00
2022-12-31T01:24:21.189Z,0.00
2022-12-31T01:25:21.229Z,0.00
2022-12-31T01:26:21.155Z,0.00
2022-12-31T01:27:21.190Z,0.00
2022-12-31T01:28:21.105Z,0.00
2022-12-31T01:29:21.148Z,0.00
2022-12-31T01:30:21.094Z,0.00
2022-12-31T01:31:21.303Z,0.00
2022-12-31T01:32:21.086Z,0.00
2022-12-31T01:33:21.095Z,0.00
2022-12-31T01:34:21.071Z,0.00
2022-12-31T01:35:21.055Z,0.00
2022-12-31T01:36:25.529Z,0.00
2022-12-31T01:37:23.018Z,0.00
2022-12-31T01:38:20.986Z,0.00
2022-12-31T01:39:20.990Z,0.00
2022-12-31T01:40:20.979Z,0.00
2022-12-31T01:41:21.014Z,0.00
2022-12-31T01:42:20.979Z,0.00
2022-12-31T01:43:20.969Z,0.00
2022-12-31T01:44:20.960Z,0.00
2022-12-31T01:45:20.955Z,0.00
2022-12-31T01:46:20.954Z,0.00
2022-12-31T01:47:20.951Z,0.00
2022-12-31T01:48:20.899Z,0.00
2022-12-31T01:49:20.923Z,0.00
2022-12-31T01:50:20.895Z,0.00
2022-12-31T01:51:20.850Z,0.00
2022-12-31T01:52:20.912Z,0.00
2022-12-31T01:53:20.822Z,0.00
2022-12-31T01:54:20.882Z,0.00
2022-12-31T01:55:20.815Z,0.00
2022-12-31T01:56:20.841Z,0.00
2022-12-31T01:57:20.787Z,0.00
2022-12-31T01:58:21.731Z,0.00
2022-12-31T01:59:20.778Z,0.00
2022-12-31T02:00:20.791Z,0.00
2022-12-31T02:01:23.351Z,0.00
2022-12-31T02:02:20.875Z,0.00
2022-12-31T02:03:20.753Z,0.00
2022-12-31T02:04:20.730Z,0.00
2022-12-31T02:05:20.791Z,0.00
2022-12-31T02:06:20.695Z,0.00
2022-12-31T02:07:20.690Z,0.00
2022-12-31T02:08:20.714Z,0.00
2022-12-31T02:09:20.661Z,0.00
2022-12-31T02:10:20.691Z,0.00
2022-12-31T02:11:20.666Z,0.00
2022-12-31T02:12:20.644Z,0.00
2022-12-31T02:13:20.608Z,0.00
2022-12-31T02:14:20.672Z,0.00
2022-12-31T02:15:20.611Z,0.00
2022-12-31T02:16:20.623Z,0.00
2022-12-31T02:17:20.618Z,0.00
2022-12-31T02:18:20.584Z,0.00
2022-12-31T02:19:20.568Z,0.00
2022-12-31T02:20:20.542Z,0.00
2022-12-31T02:21:20.532Z,0.00
2022-12-31T02:22:20.533Z,0.00
2022-12-31T02:23:21.521Z,0.00
2022-12-31T02:24:20.491Z,0.00
2022-12-31T02:25:20.517Z,0.00
2022-12-31T02:26:20.556Z,0.00
2022-12-31T02:27:20.464Z,0.00
2022-12-31T02:28:20.471Z,0.00
2022-12-31T02:29:20.453Z,0.00
2022-12-31T02:30:20.429Z,0.00
2022-12-31T02:31:20.451Z,0.00
2022-12-31T02:32:20.432Z,0.00
2022-12-31T02:33:20.404Z,0.00
2022-12-31T02:34:20.415Z,0.00
2022-12-31T02:35:20.394Z,0.00
2022-12-31T02:36:20.375Z,0.00
2022-12-31T02:37:20.379Z,0.00
2022-12-31T02:38:20.347Z,0.00
2022-12-31T02:39:20.343Z,0.00
2022-12-31T02:40:21.365Z,0.00
2022-12-31T02:41:20.321Z,0.00
2022-12-31T02:42:20.373Z,0.00
2022-12-31T02:43:20.318Z,0.00
2022-12-31T02:44:20.297Z,0.00
2022-12-31T02:45:20.279Z,0.00
2022-12-31T02:46:20.362Z,0.00
2022-12-31T02:47:20.283Z,0.00
2022-12-31T02:48:20.324Z,0.00
2022-12-31T02:49:20.233Z,0.00
2022-12-31T02:50:20.223Z,0.00
2022-12-31T02:51:20.203Z,0.00
2022-12-31T02:52:20.265Z,0.00
2022-12-31T02:53:20.206Z,0.00
2022-12-31T02:54:20.170Z,0.00
2022-12-31T02:55:20.205Z,0.00
2022-12-31T02:56:20.156Z,0.00
2022-12-31T02:57:20.145Z,0.00
2022-12-31T02:58:20.168Z,0.00
2022-12-31T02:59:20.110Z,0.00
2022-12-31T03:00:20.114Z,0.00
2022-12-31T03:01:20.172Z,0.00
2022-12-31T03:02:20.274Z,0.00
2022-12-31T03:03:20.081Z,0.00
2022-12-31T03:04:20.082Z,0.00
2022-12-31T03:05:20.131Z,0.00
2022-12-31T03:06:20.045Z,0.00
2022-12-31T03:07:20.032Z,0.00
2022-12-31T03:08:20.136Z,0.00
2022-12-31T03:09:20.025Z,0.00
2022-12-31T03:10:20.010Z,0.00
2022-12-31T03:11:20.006Z,0.00
2022-12-31T03:12:20.029Z,0.00
2022-12-31T03:13:20.016Z,0.00
2022-12-31T03:14:19.951Z,0.00
2022-12-31T03:15:20.333Z,0.00
2022-12-31T03:16:19.967Z,0.00
2022-12-31T03:17:19.968Z,0.00
2022-12-31T03:18:19.948Z,0.00
2022-12-31T03:19:20.746Z,0.00
2022-12-31T03:20:19.893Z,0.00
2022-12-31T03:21:19.917Z,0.00
2022-12-31T03:22:19.867Z,0.00
2022-12-31T03:23:19.886Z,0.00
2022-12-31T03:24:19.841Z,0.00
2022-12-31T03:25:19.846Z,0.00
2022-12-31T03:26:19.814Z,0.00
2022-12-31T03:27:19.903Z,0.00
2022-12-31T03:28:19.851Z,0.00
2022-12-31T03:29:19.792Z,0.00
2022-12-31T03:30:19.800Z,0.00
2022-12-31T03:31:19.809Z,0.00
2022-12-31T03:32:19.809Z,0.00
2022-12-31T03:33:19.848Z,0.00
2022-12-31T03:34:19.753Z,0.00
2022-12-31T03:35:19.797Z,0.00
2022-12-31T03:36:19.733Z,0.00
2022-12-31T03:37:19.699Z,0.00
2022-12-31T03:38:19.720Z,0.00
2022-12-31T03:39:19.733Z,0.00
2022-12-31T03:40:19.670Z,0.00
2022-12-31T03:41:19.669Z,0.00
2022-12-31T03:42:19.672Z,0.00
2022-12-31T03:43:19.661Z,0.00
2022-12-31T03:44:19.633Z,0.00
2022-12-31T03:45:19.619Z,0.00
2022-12-31T03:46:19.643Z,0.00
2022-12-31T03:47:19.587Z,0.00
2022-12-31T03:48:19.617Z,0.00
2022-12-31T03:49:19.569Z,0.00
2022-12-31T03:50:19.570Z,0.00
2022-12-31T03:51:19.549Z,0.00
2022-12-31T03:52:19.555Z,0.00
2022-12-31T03:53:19.531Z,0.00
2022-12-31T03:54:19.551Z,0.00
2022-12-31T03:55:19.520Z,0.00
2022-12-31T03:56:19.478Z,0.00
2022-12-31T03:57:19.517Z,0.00
2022-12-31T03:58:19.497Z,0.00
2022-12-31T03:59:19.456Z,0.00
2022-12-31T04:00:19.469Z,0.00
2022-12-31T04:01:19.518Z,0.00
2022-12-31T04:02:24.703Z,0.00
2022-12-31T04:03:21.452Z,0.00
2022-12-31T04:04:19.401Z,0.00
2022-12-31T04:05:19.474Z,0.00
2022-12-31T04:06:19.363Z,0.00
2022-12-31T04:07:19.343Z,0.00
2022-12-31T04:08:19.358Z,0.00
2022-12-31T04:09:19.331Z,0.00
2022-12-31T04:10:19.351Z,0.00
2022-12-31T04:11:21.164Z,0.00
2022-12-31T04:12:20.347Z,0.00
2022-12-31T04:13:19.295Z,0.00
2022-12-31T04:14:19.272Z,0.00
2022-12-31T04:15:19.348Z,0.00
2022-12-31T04:16:19.327Z,0.00
2022-12-31T04:17:20.252Z,0.00
2022-12-31T04:18:19.267Z,0.00
2022-12-31T04:19:19.236Z,0.00
2022-12-31T04:20:19.201Z,0.00
2022-12-31T04:21:19.200Z,0.00
2022-12-31T04:22:19.189Z,0.00
2022-12-31T04:23:19.165Z,0.00
2022-12-31T04:24:20.161Z,0.00
2022-12-31T04:25:19.139Z,0.00
2022-12-31T04:26:19.138Z,0.00
2022-12-31T04:27:19.153Z,0.00
2022-12-31T04:28:19.101Z,0.00
2022-12-31T04:29:19.120Z,0.00
2022-12-31T04:30:19.075Z,0.00
2022-12-31T04:31:19.119Z,0.00
2022-12-31T04:32:19.058Z,0.00
2022-12-31T04:33:19.061Z,0.00
2022-12-31T04:34:19.070Z,0.00
2022-12-31T04:35:19.043Z,0.00
2022-12-31T04:36:19.009Z,0.00
2022-12-31T04:37:19.022Z,0.00
2022-12-31T04:38:19.001Z,0.00
2022-12-31T04:39:18.964Z,0.00
2022-12-31T04:40:18.960Z,0.00
2022-12-31T04:41:19.018Z,0.00
2022-12-31T04:42:18.939Z,0.00
2022-12-31T04:43:18.916Z,0.00
2022-12-31T04:44:18.944Z,0.00
2022-12-31T04:45:18.933Z,0.00
2022-12-31T04:46:18.911Z,0.00
2022-12-31T04:47:23.687Z,0.00
2022-12-31T04:48:19.891Z,0.00
2022-12-31T04:49:18.853Z,0.00
2022-12-31T04:50:18.881Z,0.00
2022-12-31T04:51:18.855Z,0.00
2022-12-31T04:52:18.842Z,0.00
2022-12-31T04:53:18.853Z,0.00
2022-12-31T04:54:18.793Z,0.00
2022-12-31T04:55:18.797Z,0.00
2022-12-31T04:56:18.774Z,0.00
2022-12-31T04:57:18.765Z,0.00
2022-12-31T04:58:50.666Z,0.00
2022-12-31T04:59:18.728Z,0.00
2022-12-31T05:00:18.724Z,0.00
2022-12-31T05:01:18.863Z,0.00
2022-12-31T05:02:18.879Z,0.00
2022-12-31T05:03:18.732Z,0.00
2022-12-31T05:04:18.721Z,0.00
2022-12-31T05:05:18.782Z,0.00
2022-12-31T05:06:18.647Z,0.00
2022-12-31T05:07:18.650Z,0.00
2022-12-31T05:08:18.630Z,0.00
2022-12-31T05:09:18.610Z,0.00
2022-12-31T05:10:18.619Z,0.00
2022-12-31T05:11:18.602Z,0.00
2022-12-31T05:12:18.580Z,0.00
2022-12-31T05:13:18.593Z,0.00
2022-12-31T05:14:18.548Z,0.00
2022-12-31T05:15:18.557Z,0.00
2022-12-31T05:16:18.568Z,0.00
2022-12-31T05:17:18.518Z,0.00
2022-12-31T05:18:18.513Z,0.00
2022-12-31T05:19:19.516Z,0.00
2022-12-31T05:20:18.484Z,0.00
2022-12-31T05:21:18.462Z,0.00
2022-12-31T05:22:18.472Z,0.00
2022-12-31T05:23:18.445Z,0.00
2022-12-31T05:24:18.452Z,0.00
2022-12-31T05:25:19.431Z,0.00
2022-12-31T05:26:18.422Z,0.00
2022-12-31T05:27:18.407Z,0.00
2022-12-31T05:28:18.614Z,0.00
2022-12-31T05:29:18.415Z,0.00
2022-12-31T05:30:18.373Z,0.00
2022-12-31T05:31:18.410Z,0.00
2022-12-31T05:32:18.343Z,0.00
2022-12-31T05:33:18.349Z,0.00
2022-12-31T05:34:18.380Z,0.00
2022-12-31T05:35:18.308Z,0.00
2022-12-31T05:36:18.297Z,0.00
2022-12-31T05:37:18.287Z,0.00
2022-12-31T05:38:18.332Z,0.00
2022-12-31T05:39:18.284Z,0.00
2022-12-31T05:40:18.263Z,0.00
2022-12-31T05:41:18.237Z,0.00
2022-12-31T05:42:18.228Z,0.00
2022-12-31T05:43:18.220Z,0.00
2022-12-31T05:44:18.283Z,0.00
2022-12-31T05:45:18.362Z,0.00
2022-12-31T05:46:18.216Z,0.00
2022-12-31T05:47:18.163Z,0.00
2022-12-31T05:48:18.158Z,0.00
2022-12-31T05:49:18.144Z,0.00
2022-12-31T05:50:18.176Z,0.00
2022-12-31T05:51:18.116Z,0.00
2022-12-31T05:52:18.112Z,0.00
2022-12-31T05:53:18.095Z,0.00
2022-12-31T05:54:18.086Z,0.00
2022-12-31T05:55:18.075Z,0.00
2022-12-31T05:56:18.053Z,0.00
2022-12-31T05:57:18.051Z,0.00
2022-12-31T05:58:18.042Z,0.00
2022-12-31T05:59:18.028Z,0.00
2022-12-31T06:00:18.012Z,0.00
2022-12-31T06:01:18.020Z,0.00
2022-12-31T06:02:18.011Z,0.00
2022-12-31T06:03:18.061Z,0.00
2022-12-31T06:04:17.961Z,0.00
2022-12-31T06:05:24.137Z,0.00
2022-12-31T06:06:19.928Z,0.00
2022-12-31T06:07:17.947Z,0.00
2022-12-31T06:08:17.909Z,0.00
2022-12-31T06:09:17.897Z,0.00
2022-12-31T06:10:17.894Z,0.00
2022-12-31T06:11:17.870Z,0.00
2022-12-31T06:12:17.877Z,0.00
2022-12-31T06:13:17.855Z,0.00
2022-12-31T06:14:17.835Z,0.00
2022-12-31T06:15:17.859Z,0.00
2022-12-31T06:16:17.861Z,0.00
2022-12-31T06:17:17.815Z,0.00
2022-12-31T06:18:17.911Z,0.00
2022-12-31T06:19:17.778Z,0.00
2022-12-31T06:20:17.877Z,0.00
2022-12-31T06:21:17.770Z,0.00
2022-12-31T06:22:17.749Z,0.00
2022-12-31T06:23:17.747Z,0.00
2022-12-31T06:24:17.717Z,0.00
2022-12-31T06:25:17.730Z,0.00
2022-12-31T06:26:17.782Z,0.00
2022-12-31T06:27:17.678Z,0.00
2022-12-31T06:28:20.297Z,0.00
2022-12-31T06:29:18.655Z,0.00
2022-12-31T06:30:17.644Z,0.00
2022-12-31T06:31:17.643Z,0.00
2022-12-31T06:32:17.618Z,0.00
2022-12-31T06:33:17.607Z,0.00
2022-12-31T06:34:17.598Z,0.00
2022-12-31T06:35:17.807Z,0.00
2022-12-31T06:36:17.568Z,0.00
2022-12-31T06:37:17.551Z,0.00
2022-12-31T06:38:17.608Z,0.00
2022-12-31T06:39:17.563Z,0.00
2022-12-31T06:40:17.523Z,0.00
2022-12-31T06:41:17.530Z,0.00
2022-12-31T06:42:17.494Z,0.00
2022-12-31T06:43:17.566Z,0.00
2022-12-31T06:44:17.487Z,0.00
2022-12-31T06:45:17.467Z,0.00
2022-12-31T06:46:17.492Z,0.00
2022-12-31T06:47:17.493Z,0.00
2022-12-31T06:48:17.434Z,0.00
2022-12-31T06:49:17.526Z,0.00
2022-12-31T06:50:17.419Z,0.00
2022-12-31T06:51:17.735Z,0.00
2022-12-31T06:52:17.375Z,0.00
2022-12-31T06:53:17.375Z,0.00
2022-12-31T06:54:17.380Z,0.00
2022-12-31T06:55:17.353Z,0.00
2022-12-31T06:56:17.340Z,0.00
2022-12-31T06:57:17.326Z,0.00
2022-12-31T06:58:17.314Z,0.00
2022-12-31T06:59:17.781Z,0.00
2022-12-31T07:00:17.284Z,0.00
2022-12-31T07:01:17.328Z,4.00
2022-12-31T07:02:17.462Z,0.00
2022-12-31T07:03:17.378Z,4.00
2022-12-31T07:04:17.264Z,4.00
2022-12-31T07:05:17.236Z,4.00
2022-12-31T07:06:17.237Z,4.00
2022-12-31T07:07:17.222Z,4.00
2022-12-31T07:08:17.198Z,8.00
2022-12-31T07:09:17.191Z,8.00
2022-12-31T07:10:17.187Z,8.00
2022-12-31T07:11:17.162Z,8.00
2022-12-31T07:12:17.141Z,12.00
2022-12-31T07:13:17.141Z,12.00
2022-12-31T07:14:17.128Z,8.00
2022-12-31T07:15:17.137Z,8.00
2022-12-31T07:16:17.124Z,8.00
2022-12-31T07:17:17.137Z,12.00
2022-12-31T07:18:17.098Z,12.00
2022-12-31T07:19:17.073Z,20.00
2022-12-31T07:20:17.142Z,20.00
2022-12-31T07:21:17.065Z,24.00
2022-12-31T07:22:17.030Z,28.00
2022-12-31T07:23:17.076Z,28.00
2022-12-31T07:24:16.996Z,32.00
2022-12-31T07:25:17.006Z,28.00
2022-12-31T07:26:17.002Z,28.00
2022-12-31T07:27:17.977Z,28.00
2022-12-31T07:28:16.954Z,28.00
2022-12-31T07:29:16.950Z,32.00
2022-12-31T07:30:16.943Z,32.00
2022-12-31T07:31:16.982Z,32.00
2022-12-31T07:32:16.932Z,36.00
2022-12-31T07:33:16.903Z,40.00
2022-12-31T07:34:16.899Z,44.00
2022-12-31T07:35:16.894Z,52.00
2022-12-31T07:36:16.878Z,48.00
2022-12-31T07:37:16.867Z,52.00
2022-12-31T07:38:16.964Z,60.00
2022-12-31T07:39:16.827Z,56.00
2022-12-31T07:40:16.840Z,56.00
2022-12-31T07:41:16.838Z,64.00
2022-12-31T07:42:16.877Z,68.00
2022-12-31T07:43:16.830Z,76.00
2022-12-31T07:44:16.768Z,76.00
2022-12-31T07:45:16.762Z,64.00
2022-12-31T07:46:17.818Z,72.00
2022-12-31T07:47:16.733Z,72.00
2022-12-31T07:48:16.724Z,80.00
2022-12-31T07:49:16.813Z,96.00
2022-12-31T07:50:16.688Z,120.00
2022-12-31T07:51:17.691Z,136.00
2022-12-31T07:52:16.706Z,196.00
2022-12-31T07:53:16.677Z,192.00
2022-12-31T07:54:16.677Z,160.00
2022-12-31T07:55:16.635Z,148.00
2022-12-31T07:56:16.638Z,140.00
2022-12-31T07:57:16.692Z,184.00
2022-12-31T07:58:16.647Z,168.00
2022-12-31T07:59:22.445Z,172.00
2022-12-31T08:00:17.715Z,204.00
2022-12-31T08:01:16.645Z,208.00
2022-12-31T08:02:16.678Z,236.00
2022-12-31T08:03:16.560Z,232.00
2022-12-31T08:04:16.538Z,312.00
2022-12-31T08:05:16.537Z,284.00
2022-12-31T08:06:16.554Z,276.00
2022-12-31T08:07:16.506Z,364.00
2022-12-31T08:08:16.513Z,288.00
2022-12-31T08:09:16.480Z,240.00
2022-12-31T08:10:18.170Z,248.00
2022-12-31T08:11:17.454Z,272.00
2022-12-31T08:12:16.443Z,292.00
2022-12-31T08:13:16.511Z,328.00
2022-12-31T08:14:16.426Z,420.00
2022-12-31T08:15:16.436Z,432.00
2022-12-31T08:16:16.438Z,448.00
2022-12-31T08:17:16.364Z,408.00
2022-12-31T08:18:16.373Z,388.00
2022-12-31T08:19:16.364Z,324.00
2022-12-31T08:20:16.361Z,300.00
2022-12-31T08:21:16.337Z,296.00
2022-12-31T08:22:16.323Z,240.00
2022-12-31T08:23:16.318Z,228.00
2022-12-31T08:24:16.286Z,204.00
2022-12-31T08:25:16.300Z,244.00
2022-12-31T08:26:16.309Z,264.00
2022-12-31T08:27:16.273Z,336.00
2022-12-31T08:28:16.260Z,372.00
2022-12-31T08:29:16.254Z,364.00
2022-12-31T08:30:16.216Z,376.00
2022-12-31T08:31:16.310Z,412.00
2022-12-31T08:32:16.237Z,440.00
2022-12-31T08:33:16.210Z,476.00
2022-12-31T08:34:16.201Z,488.00
2022-12-31T08:35:16.177Z,528.00
2022-12-31T08:36:16.160Z,516.00
2022-12-31T08:37:16.158Z,508.00
2022-12-31T08:38:16.134Z,496.00
2022-12-31T08:39:16.153Z,520.00
2022-12-31T08:40:16.149Z,572.00
2022-12-31T08:41:16.103Z,568.00
2022-12-31T08:42:16.142Z,732.00
2022-12-31T08:43:16.085Z,892.00
2022-12-31T08:44:16.089Z,1052.00
2022-12-31T08:45:16.072Z,1100.00
2022-12-31T08:46:16.128Z,1004.00
2022-12-31T08:47:16.050Z,980.00
2022-12-31T08:48:16.039Z,764.00
2022-12-31T08:49:16.178Z,772.00
2022-12-31T08:50:24.086Z,776.00
2022-12-31T08:51:16.017Z,1008.00
2022-12-31T08:52:15.993Z,872.00
2022-12-31T08:53:15.969Z,904.00
2022-12-31T08:54:16.046Z,1004.00
2022-12-31T08:55:15.964Z,1196.00
2022-12-31T08:56:15.932Z,1760.00
2022-12-31T08:57:15.931Z,2608.00
2022-12-31T08:58:15.908Z,2352.00
2022-12-31T08:59:15.896Z,1816.00
2022-12-31T09:00:15.891Z,2020.00
2022-12-31T09:01:16.001Z,2408.00
2022-12-31T09:02:15.901Z,2664.00
2022-12-31T09:03:15.843Z,2588.00
2022-12-31T09:04:15.901Z,2212.00
2022-12-31T09:05:15.865Z,1920.00
2022-12-31T09:06:15.846Z,1728.00
2022-12-31T09:07:15.809Z,1424.00
2022-12-31T09:08:15.796Z,1300.00
2022-12-31T09:09:15.775Z,1280.00
2022-12-31T09:10:15.795Z,1068.00
2022-12-31T09:11:22.628Z,920.00
2022-12-31T09:12:17.750Z,816.00
2022-12-31T09:13:15.748Z,1020.00
2022-12-31T09:14:15.727Z,1144.00
2022-12-31T09:15:15.729Z,1148.00
2022-12-31T09:16:15.756Z,956.00
2022-12-31T09:17:15.700Z,1056.00
2022-12-31T09:18:15.678Z,1216.00
2022-12-31T09:19:15.719Z,1232.00
2022-12-31T09:20:15.693Z,1240.00
2022-12-31T09:21:15.694Z,1432.00
2022-12-31T09:22:15.644Z,1732.00
2022-12-31T09:23:15.619Z,1720.00
2022-12-31T09:24:15.626Z,1592.00
2022-12-31T09:25:15.660Z,1656.00
2022-12-31T09:26:15.664Z,1684.00
2022-12-31T09:27:15.605Z,1344.00
2022-12-31T09:28:15.585Z,1184.00
2022-12-31T09:29:15.556Z,1356.00
2022-12-31T09:30:15.551Z,1872.00
2022-12-31T09:31:15.605Z,1908.00
2022-12-31T09:32:15.540Z,1784.00
2022-12-31T09:33:15.537Z,2084.00
2022-12-31T09:34:15.502Z,2080.00
2022-12-31T09:35:15.497Z,2000.00
2022-12-31T09:36:15.496Z,2056.00
2022-12-31T09:37:15.495Z,2008.00
2022-12-31T09:38:15.465Z,1688.00
2022-12-31T09:39:15.461Z,1348.00
2022-12-31T09:40:15.441Z,1288.00
2022-12-31T09:41:15.460Z,1264.00
2022-12-31T09:42:15.440Z,1348.00
2022-12-31T09:43:15.405Z,1348.00
2022-12-31T09:44:15.415Z,1332.00
2022-12-31T09:45:15.397Z,1420.00
2022-12-31T09:46:15.497Z,1576.00
2022-12-31T09:47:15.385Z,1660.00
2022-12-31T09:48:15.390Z,1816.00
2022-12-31T09:49:15.369Z,1820.00
2022-12-31T09:50:15.537Z,1780.00
2022-12-31T09:51:17.134Z,1716.00
2022-12-31T09:52:16.352Z,1700.00
2022-12-31T09:53:15.311Z,1540.00
2022-12-31T09:54:15.285Z,1176.00
2022-12-31T09:55:15.293Z,820.00
2022-12-31T09:56:15.373Z,840.00
2022-12-31T09:57:15.293Z,864.00
2022-12-31T09:58:15.260Z,824.00
2022-12-31T09:59:15.236Z,1088.00
2022-12-31T10:00:15.253Z,1324.00
2022-12-31T10:01:15.340Z,1556.00
2022-12-31T10:02:15.292Z,1608.00
2022-12-31T10:03:15.277Z,1644.00
2022-12-31T10:04:15.188Z,2132.00
2022-12-31T10:05:15.158Z,2264.00
2022-12-31T10:06:15.297Z,1804.00
2022-12-31T10:07:15.158Z,1636.00
2022-12-31T10:08:15.747Z,1568.00
2022-12-31T10:09:15.158Z,1760.00
2022-12-31T10:10:15.149Z,1880.00
2022-12-31T10:11:15.103Z,1552.00
2022-12-31T10:12:15.095Z,1532.00
2022-12-31T10:13:15.096Z,1616.00
2022-12-31T10:14:15.108Z,2056.00
2022-12-31T10:15:15.083Z,1948.00
2022-12-31T10:16:15.082Z,2348.00
2022-12-31T10:17:15.034Z,2172.00
2022-12-31T10:18:15.043Z,1608.00
2022-12-31T10:19:15.021Z,1280.00
2022-12-31T10:20:15.046Z,1144.00
2022-12-31T10:21:14.995Z,1268.00
2022-12-31T10:22:15.013Z,1160.00
2022-12-31T10:23:15.017Z,1140.00
2022-12-31T10:24:14.978Z,1236.00
2022-12-31T10:25:14.999Z,1216.00
2022-12-31T10:26:14.951Z,1368.00
2022-12-31T10:27:14.944Z,1520.00
2022-12-31T10:28:14.911Z,1560.00
2022-12-31T10:29:14.921Z,1808.00
2022-12-31T10:30:14.941Z,1924.00
2022-12-31T10:31:14.923Z,1632.00
2022-12-31T10:32:14.873Z,1168.00
2022-12-31T10:33:14.863Z,836.00
2022-12-31T10:34:14.868Z,932.00
2022-12-31T10:35:14.849Z,1052.00
2022-12-31T10:36:14.860Z,940.00
2022-12-31T10:37:14.840Z,804.00
2022-12-31T10:38:14.801Z,728.00
2022-12-31T10:39:20.485Z,708.00
2022-12-31T10:40:16.829Z,716.00
2022-12-31T10:41:14.801Z,748.00
2022-12-31T10:42:14.747Z,692.00
2022-12-31T10:43:14.751Z,664.00
2022-12-31T10:44:14.748Z,780.00
2022-12-31T10:45:14.759Z,840.00
2022-12-31T10:46:19.138Z,900.00
2022-12-31T10:47:16.726Z,1008.00
2022-12-31T10:48:14.691Z,1152.00
2022-12-31T10:49:14.690Z,1252.00
2022-12-31T10:50:14.700Z,1344.00
2022-12-31T10:51:14.761Z,1904.00
2022-12-31T10:52:14.659Z,2104.00
2022-12-31T10:53:14.640Z,2300.00
2022-12-31T10:54:14.636Z,2580.00
2022-12-31T10:55:14.624Z,2140.00
2022-12-31T10:56:14.636Z,1704.00
2022-12-31T10:57:14.624Z,1632.00
2022-12-31T10:58:14.603Z,1924.00
2022-12-31T10:59:46.488Z,1800.00
2022-12-31T11:00:14.571Z,1860.00
2022-12-31T11:01:14.654Z,2236.00
2022-12-31T11:02:14.767Z,2396.00
2022-12-31T11:03:14.678Z,2548.00
2022-12-31T11:04:14.569Z,2960.00
2022-12-31T11:05:14.525Z,3428.00
2022-12-31T11:06:14.512Z,4048.00
2022-12-31T11:07:14.522Z,7560.00
2022-12-31T11:08:14.488Z,6940.00
2022-12-31T11:09:14.497Z,5796.00
2022-12-31T11:10:14.483Z,4728.00
2022-12-31T11:11:14.449Z,4256.00
2022-12-31T11:12:14.473Z,5152.00
2022-12-31T11:13:14.440Z,4404.00
2022-12-31T11:14:14.420Z,3564.00
2022-12-31T11:15:14.414Z,3040.00
2022-12-31T11:16:14.455Z,3240.00
2022-12-31T11:17:14.402Z,4220.00
2022-12-31T11:18:14.453Z,4448.00
2022-12-31T11:19:14.378Z,3312.00
2022-12-31T11:20:14.395Z,2952.00
2022-12-31T11:21:14.381Z,2648.00
2022-12-31T11:22:14.365Z,2860.00
2022-12-31T11:23:14.313Z,3000.00
2022-12-31T11:24:14.314Z,2856.00
2022-12-31T11:25:14.321Z,2672.00
2022-12-31T11:26:14.303Z,2924.00
2022-12-31T11:27:14.278Z,2580.00
2022-12-31T11:28:14.318Z,2464.00
2022-12-31T11:29:14.267Z,2264.00
2022-12-31T11:30:14.282Z,3104.00
2022-12-31T11:31:14.417Z,3500.00
2022-12-31T11:32:14.253Z,3080.00
2022-12-31T11:33:14.231Z,2964.00
2022-12-31T11:34:14.220Z,3380.00
2022-12-31T11:35:14.259Z,3460.00
2022-12-31T11:36:14.277Z,3960.00
2022-12-31T11:37:14.258Z,3992.00
2022-12-31T11:38:14.185Z,5572.00
2022-12-31T11:39:14.199Z,6784.00
2022-12-31T11:40:14.177Z,9628.00
2022-12-31T11:41:15.106Z,11244.00
2022-12-31T11:42:14.211Z,10832.00
2022-12-31T11:43:14.108Z,10676.00
2022-12-31T11:44:14.097Z,10668.00
2022-12-31T11:45:14.112Z,9876.00
2022-12-31T11:46:14.140Z,7592.00
2022-12-31T11:47:14.051Z,6124.00
2022-12-31T11:48:30.224Z,5740.00
2022-12-31T11:49:16.052Z,5808.00
2022-12-31T11:50:14.069Z,5384.00
2022-12-31T11:51:14.079Z,6272.00
2022-12-31T11:52:18.263Z,5532.00
2022-12-31T11:53:16.013Z,5536.00
2022-12-31T11:54:13.977Z,5884.00
2022-12-31T11:55:14.012Z,5184.00
2022-12-31T11:56:13.998Z,5052.00
2022-12-31T11:57:13.991Z,5332.00
2022-12-31T11:58:13.935Z,5764.00
2022-12-31T11:59:18.877Z,5904.00
2022-12-31T12:00:14.927Z,5888.00
2022-12-31T12:01:13.951Z,5952.00
2022-12-31T12:02:13.887Z,5920.00
2022-12-31T12:03:13.959Z,6032.00
2022-12-31T12:04:13.901Z,5836.00
2022-12-31T12:05:13.895Z,5052.00
2022-12-31T12:06:13.851Z,4600.00
2022-12-31T12:07:13.862Z,4596.00
2022-12-31T12:08:13.826Z,4612.00
2022-12-31T12:09:13.824Z,4716.00
2022-12-31T12:10:13.828Z,3816.00
2022-12-31T12:11:13.790Z,2804.00
2022-12-31T12:12:13.778Z,2444.00
2022-12-31T12:13:13.767Z,2260.00
2022-12-31T12:14:13.739Z,2116.00
2022-12-31T12:15:13.751Z,2008.00
2022-12-31T12:16:13.750Z,1752.00
2022-12-31T12:17:13.729Z,1600.00
2022-12-31T12:18:13.734Z,1568.00
2022-12-31T12:19:13.679Z,1572.00
2022-12-31T12:20:13.684Z,1472.00
2022-12-31T12:21:13.684Z,1520.00
2022-12-31T12:22:13.663Z,1724.00
2022-12-31T12:23:13.651Z,1652.00
2022-12-31T12:24:13.636Z,1508.00
2022-12-31T12:25:13.696Z,1508.00
2022-12-31T12:26:13.602Z,1620.00
2022-12-31T12:27:13.594Z,1692.00
2022-12-31T12:28:13.606Z,1708.00
2022-12-31T12:29:13.759Z,1784.00
2022-12-31T12:30:13.554Z,1672.00
2022-12-31T12:31:13.558Z,1968.00
2022-12-31T12:32:13.562Z,2264.00
2022-12-31T12:33:13.576Z,2992.00
2022-12-31T12:34:13.525Z,2668.00
2022-12-31T12:35:13.526Z,2632.00
2022-12-31T12:36:13.507Z,3528.00
2022-12-31T12:37:13.477Z,3544.00
2022-12-31T12:38:13.482Z,4024.00
2022-12-31T12:39:13.489Z,4688.00
2022-12-31T12:40:13.448Z,5808.00
2022-12-31T12:41:13.435Z,5356.00
2022-12-31T12:42:13.437Z,5076.00
2022-12-31T12:43:13.459Z,5036.00
2022-12-31T12:44:13.418Z,4048.00
2022-12-31T12:45:13.401Z,3904.00
2022-12-31T12:46:13.482Z,4324.00
2022-12-31T12:47:13.485Z,4436.00
2022-12-31T12:48:13.357Z,4772.00
2022-12-31T12:49:13.344Z,4536.00